Terminal Aerodrome Forecast
Issued by NWS Wichita, KS

Home | Current Version | Previous Version | Text Only | Print | Product List | Glossary On
Versions: 1 2 3 4 5 6 7 8 9 10 11 12 13
000
FTUS43 KICT 021729
TAFICT
TAF
KICT 021729Z 0218/0318 05006KT P6SM OVC150
     FM030600 05007KT P6SM OVC090
     FM031200 06007KT P6SM OVC040
     FM031600 09008KT P6SM -RA OVC030=

USA.gov is the U.S. government's official web portal to all federal, state and local government web resources and services.